Iliamna Airport
PAIL : now visible

Airfield :











YOU CAN JOIN US ON...

 
LOGIN :

Register | Disclaimer

   EN    FR    IT 

 









Legend :    VFR   Marginal VFR   IFR   Intensive IFR   Very Intensive IFR
Visi :
Ceiling :
>= 8 km
>= 3000ft
5 to 8 km
1000 to 3000 ft
1500m to 5 km
500 to 1000 ft
800 to 1500m
200 to 500 ft
< 800m
< 200 ft
Symbols :   Thunderstorms  Fog  Heavy snow  Heavy precipitations  Wind > 20 kt






- Airport Elevation : 192 ft
- IATA code : ILI


PAIL - Iliamna

CURRENT METAR :
  • 011253Z AUTO 09019G28KT 9SM -SN OVC042 M02/M03 A3018 RMK AO2 PK WND 10028/1245 SNB47 SLP222 P0000 T10171033 TSNO

EXPIRED METARs :
  • 011153Z AUTO 08017G23KT 10SM FEW039 SCT055 OVC075 M02/M04 A3019 RMK AO2 PK WND 08027/1126 SLP227 T10221044 11011 21022 58010 TSNO
  • 011053Z AUTO 09015G24KT 10SM SCT065 BKN080 OVC095 M02/M06 A3020 RMK AO2 PK WND 09026/1016 SLP231 T10221056 TSNO

TAF PAIL
Valid from the 01 at 12:00 until the 02 at 12:00 UTC


011147Z 0112/0212 09015G25KT P6SM -SN BKN050 BKN080 OVC100
FM020300 09015G25KT 4SM -SN BR OVC015
FM020900 09013G20KT 4SM -SN BR OVC007



MET'MAP, your aeronautical weather chart ! - Copyright ORBIFLY December 2007 - Disclaimer

ORBIFLY MET'MAP TEAM :

Programming & Development : Alexandra Zaïnal
Concept & original design : Baudouin d'Aumeries
Assistance for programming : Marc-Olivier Méhu
Technical & hardware support : Manuel Goepfert

Contact : metmap@orbifly.com




SOURCES & CREDITS :

   NOAA       Earth
Advisory